SCRIPT_RESULTS Banner
TAF for OIZH

by Dr. Günther Eichhorn

TAF for OIZH provided by aerobaticsweb.org
Current time: Wednesday, 5 Oct, 2022, 06:01 UTC
(This may take a minute, please be patient)


The most recent TAF forecast from OIZH in our system was generated at
2022/10/05 06:54
The forecast is:
OIZH 2022/10/05 06:54
TAF OIZH 050540Z 0506/0612 32008KT 8000 NSC
TEMPO 0507/0515 03020KT 4000 SA/DU
TEMPO 0606/0612 03020KT 3000 SA/DU



access provided by Dr. Guenther Eichhorn at aerobaticsweb.org